sensor_id;sensor_type;location;lat;lon;timestamp;pressure;altitude;pressure_sealevel;temperature;humidity
36242;BME280;22283;42.748;12.732;2024-03-07T00:04:36;98135.88;;;3.31;100.00
36242;BME280;22283;42.748;12.732;2024-03-07T00:09:36;98135.56;;;3.18;100.00
36242;BME280;22283;42.748;12.732;2024-03-07T00:14:37;98142.16;;;3.07;100.00
36242;BME280;22283;42.748;12.732;2024-03-07T00:19:37;98146.88;;;2.99;100.00
36242;BME280;22283;42.748;12.732;2024-03-07T00:24:39;98160.06;;;2.95;100.00
36242;BME280;22283;42.748;12.732;2024-03-07T00:29:40;98145.13;;;2.77;100.00
36242;BME280;22283;42.748;12.732;2024-03-07T00:34:41;98141.88;;;2.72;100.00
36242;BME280;22283;42.748;12.732;2024-03-07T00:39:42;98155.84;;;2.71;100.00
36242;BME280;22283;42.748;12.732;2024-03-07T00:44:43;98163.81;;;2.68;100.00
36242;BME280;22283;42.748;12.732;2024-03-07T00:49:44;98146.75;;;2.59;100.00
36242;BME280;22283;42.748;12.732;2024-03-07T00:54:46;98146.03;;;2.78;100.00
36242;BME280;22283;42.748;12.732;2024-03-07T00:59:47;98127.97;;;2.71;100.00
36242;BME280;22283;42.748;12.732;2024-03-07T01:04:48;98134.03;;;2.72;100.00
36242;BME280;22283;42.748;12.732;2024-03-07T01:09:49;98131.69;;;2.66;100.00
36242;BME280;22283;42.748;12.732;2024-03-07T01:14:49;98138.09;;;2.59;100.00
36242;BME280;22283;42.748;12.732;2024-03-07T01:19:50;98143.81;;;2.46;100.00
36242;BME280;22283;42.748;12.732;2024-03-07T01:24:50;98132.63;;;2.43;100.00
36242;BME280;22283;42.748;12.732;2024-03-07T01:29:51;98121.03;;;2.28;100.00
36242;BME280;22283;42.748;12.732;2024-03-07T01:34:53;98131.22;;;2.12;100.00
36242;BME280;22283;42.748;12.732;2024-03-07T01:39:55;98112.88;;;1.92;100.00
36242;BME280;22283;42.748;12.732;2024-03-07T01:44:55;98114.69;;;1.90;100.00
36242;BME280;22283;42.748;12.732;2024-03-07T01:49:56;98107.31;;;1.79;100.00
36242;BME280;22283;42.748;12.732;2024-03-07T01:54:57;98115.31;;;1.75;100.00
36242;BME280;22283;42.748;12.732;2024-03-07T01:59:57;98105.28;;;1.64;100.00
36242;BME280;22283;42.748;12.732;2024-03-07T02:04:59;98106.75;;;1.47;100.00
36242;BME280;22283;42.748;12.732;2024-03-07T02:10:03;98104.47;;;1.38;100.00
36242;BME280;22283;42.748;12.732;2024-03-07T02:15:04;98115.63;;;1.42;100.00
36242;BME280;22283;42.748;12.732;2024-03-07T02:20:05;98115.34;;;1.50;100.00
36242;BME280;22283;42.748;12.732;2024-03-07T02:25:08;98125.00;;;1.47;100.00
36242;BME280;22283;42.748;12.732;2024-03-07T02:30:13;98110.94;;;1.28;100.00
36242;BME280;22283;42.748;12.732;2024-03-07T02:35:13;98121.09;;;1.36;100.00
36242;BME280;22283;42.748;12.732;2024-03-07T02:40:16;98114.00;;;1.39;100.00
36242;BME280;22283;42.748;12.732;2024-03-07T02:45:16;98089.38;;;1.46;100.00
36242;BME280;22283;42.748;12.732;2024-03-07T02:50:17;98104.03;;;1.51;100.00
36242;BME280;22283;42.748;12.732;2024-03-07T02:55:18;98102.00;;;1.35;100.00
36242;BME280;22283;42.748;12.732;2024-03-07T03:00:19;98102.00;;;1.35;100.00
36242;BME280;22283;42.748;12.732;2024-03-07T03:05:20;98109.63;;;1.16;100.00
36242;BME280;22283;42.748;12.732;2024-03-07T03:10:21;98092.66;;;1.05;100.00
36242;BME280;22283;42.748;12.732;2024-03-07T03:15:26;98109.25;;;1.02;100.00
36242;BME280;22283;42.748;12.732;2024-03-07T03:20:27;98103.84;;;0.83;100.00
36242;BME280;22283;42.748;12.732;2024-03-07T03:25:39;98110.41;;;0.68;100.00
36242;BME280;22283;42.748;12.732;2024-03-07T03:30:41;98099.28;;;0.63;100.00
36242;BME280;22283;42.748;12.732;2024-03-07T03:35:42;98108.41;;;0.77;100.00
36242;BME280;22283;42.748;12.732;2024-03-07T03:40:42;98107.28;;;0.84;100.00
36242;BME280;22283;42.748;12.732;2024-03-07T03:45:43;98112.78;;;0.74;100.00
36242;BME280;22283;42.748;12.732;2024-03-07T03:50:43;98117.97;;;0.76;100.00
36242;BME280;22283;42.748;12.732;2024-03-07T03:55:46;98123.28;;;0.73;100.00
36242;BME280;22283;42.748;12.732;2024-03-07T04:00:47;98124.19;;;0.72;100.00
36242;BME280;22283;42.748;12.732;2024-03-07T04:05:47;98138.63;;;0.56;100.00
36242;BME280;22283;42.748;12.732;2024-03-07T04:10:48;98151.72;;;0.53;100.00
36242;BME280;22283;42.748;12.732;2024-03-07T04:15:48;98144.41;;;0.64;100.00
36242;BME280;22283;42.748;12.732;2024-03-07T04:20:49;98147.91;;;0.89;100.00
36242;BME280;22283;42.748;12.732;2024-03-07T04:25:49;98155.84;;;1.11;100.00
36242;BME280;22283;42.748;12.732;2024-03-07T04:30:51;98154.44;;;1.26;100.00
36242;BME280;22283;42.748;12.732;2024-03-07T04:35:53;98144.59;;;1.34;100.00
36242;BME280;22283;42.748;12.732;2024-03-07T04:40:54;98152.94;;;1.44;100.00
36242;BME280;22283;42.748;12.732;2024-03-07T04:45:56;98160.47;;;1.52;100.00
36242;BME280;22283;42.748;12.732;2024-03-07T04:51:03;98152.22;;;1.64;100.00
36242;BME280;22283;42.748;12.732;2024-03-07T04:56:04;98166.72;;;1.71;100.00
36242;BME280;22283;42.748;12.732;2024-03-07T05:01:05;98156.41;;;1.68;100.00
36242;BME280;22283;42.748;12.732;2024-03-07T05:06:05;98171.66;;;1.79;100.00
36242;BME280;22283;42.748;12.732;2024-03-07T05:11:06;98176.81;;;1.80;100.00
36242;BME280;22283;42.748;12.732;2024-03-07T05:16:06;98170.66;;;1.83;100.00
36242;BME280;22283;42.748;12.732;2024-03-07T05:21:07;98173.91;;;1.88;100.00
36242;BME280;22283;42.748;12.732;2024-03-07T05:26:26;98163.13;;;1.97;100.00
36242;BME280;22283;42.748;12.732;2024-03-07T05:31:26;98150.94;;;1.97;100.00
36242;BME280;22283;42.748;12.732;2024-03-07T05:36:27;98170.44;;;2.11;100.00
36242;BME280;22283;42.748;12.732;2024-03-07T05:41:27;98168.50;;;2.16;100.00
36242;BME280;22283;42.748;12.732;2024-03-07T05:46:29;98151.69;;;2.23;100.00
36242;BME280;22283;42.748;12.732;2024-03-07T05:51:30;98155.88;;;2.27;100.00
36242;BME280;22283;42.748;12.732;2024-03-07T05:56:30;98161.78;;;2.32;100.00
36242;BME280;22283;42.748;12.732;2024-03-07T06:01:31;98162.69;;;2.31;100.00
36242;BME280;22283;42.748;12.732;2024-03-07T06:06:35;98161.47;;;2.40;100.00
36242;BME280;22283;42.748;12.732;2024-03-07T06:11:36;98161.41;;;2.41;100.00
36242;BME280;22283;42.748;12.732;2024-03-07T06:16:38;98183.81;;;2.25;100.00
36242;BME280;22283;42.748;12.732;2024-03-07T06:21:39;98186.97;;;2.33;100.00
36242;BME280;22283;42.748;12.732;2024-03-07T06:26:41;98199.31;;;2.30;100.00
36242;BME280;22283;42.748;12.732;2024-03-07T06:31:45;98194.47;;;2.42;100.00
36242;BME280;22283;42.748;12.732;2024-03-07T06:36:48;98190.84;;;2.45;100.00
36242;BME280;22283;42.748;12.732;2024-03-07T06:41:49;98182.47;;;2.59;100.00
36242;BME280;22283;42.748;12.732;2024-03-07T06:46:49;98182.84;;;2.71;100.00
36242;BME280;22283;42.748;12.732;2024-03-07T06:51:50;98177.44;;;2.96;100.00
36242;BME280;22283;42.748;12.732;2024-03-07T06:56:51;98172.16;;;3.39;100.00
36242;BME280;22283;42.748;12.732;2024-03-07T07:01:52;98167.91;;;3.57;100.00
36242;BME280;22283;42.748;12.732;2024-03-07T07:06:54;98176.31;;;3.63;100.00
36242;BME280;22283;42.748;12.732;2024-03-07T07:11:55;98179.38;;;3.73;100.00
36242;BME280;22283;42.748;12.732;2024-03-07T07:16:56;98182.94;;;4.10;100.00
36242;BME280;22283;42.748;12.732;2024-03-07T07:21:56;98182.78;;;4.32;100.00
36242;BME280;22283;42.748;12.732;2024-03-07T07:26:57;98164.84;;;4.60;100.00
36242;BME280;22283;42.748;12.732;2024-03-07T07:31:58;98188.31;;;4.26;100.00
36242;BME280;22283;42.748;12.732;2024-03-07T07:36:58;98183.50;;;3.98;100.00
36242;BME280;22283;42.748;12.732;2024-03-07T07:41:59;98208.50;;;3.65;100.00
36242;BME280;22283;42.748;12.732;2024-03-07T07:46:59;98218.06;;;3.46;100.00
36242;BME280;22283;42.748;12.732;2024-03-07T07:52:00;98220.94;;;3.60;100.00
36242;BME280;22283;42.748;12.732;2024-03-07T07:57:01;98230.00;;;3.72;100.00
36242;BME280;22283;42.748;12.732;2024-03-07T08:02:01;98235.22;;;3.72;100.00
36242;BME280;22283;42.748;12.732;2024-03-07T08:07:02;98236.94;;;3.73;100.00
36242;BME280;22283;42.748;12.732;2024-03-07T08:12:02;98239.75;;;4.08;100.00
36242;BME280;22283;42.748;12.732;2024-03-07T08:17:03;98238.19;;;4.23;100.00
36242;BME280;22283;42.748;12.732;2024-03-07T08:22:04;98252.56;;;4.14;100.00
36242;BME280;22283;42.748;12.732;2024-03-07T08:27:04;98266.03;;;4.25;100.00
36242;BME280;22283;42.748;12.732;2024-03-07T08:32:05;98252.31;;;4.20;100.00
36242;BME280;22283;42.748;12.732;2024-03-07T08:37:06;98249.66;;;4.58;100.00
36242;BME280;22283;42.748;12.732;2024-03-07T08:42:07;98239.38;;;4.91;100.00
36242;BME280;22283;42.748;12.732;2024-03-07T08:47:07;98255.28;;;4.86;100.00
36242;BME280;22283;42.748;12.732;2024-03-07T08:52:10;98239.94;;;5.32;100.00
36242;BME280;22283;42.748;12.732;2024-03-07T08:57:10;98245.69;;;5.74;100.00
36242;BME280;22283;42.748;12.732;2024-03-07T09:02:11;98244.28;;;5.84;100.00
36242;BME280;22283;42.748;12.732;2024-03-07T09:07:11;98248.91;;;6.29;100.00
36242;BME280;22283;42.748;12.732;2024-03-07T09:12:14;98242.75;;;6.62;100.00
36242;BME280;22283;42.748;12.732;2024-03-07T09:17:15;98245.75;;;7.48;99.72
36242;BME280;22283;42.748;12.732;2024-03-07T09:22:16;98241.25;;;7.64;95.34
36242;BME280;22283;42.748;12.732;2024-03-07T09:27:17;98242.00;;;7.52;96.26
36242;BME280;22283;42.748;12.732;2024-03-07T09:32:20;98236.78;;;7.36;95.10
36242;BME280;22283;42.748;12.732;2024-03-07T09:37:22;98242.13;;;6.88;99.43
36242;BME280;22283;42.748;12.732;2024-03-07T09:42:25;98228.34;;;7.15;100.00
36242;BME280;22283;42.748;12.732;2024-03-07T09:47:26;98234.41;;;7.61;99.80
36242;BME280;22283;42.748;12.732;2024-03-07T09:52:27;98236.63;;;7.98;94.57
36242;BME280;22283;42.748;12.732;2024-03-07T09:57:31;98234.16;;;7.95;96.77
36242;BME280;22283;42.748;12.732;2024-03-07T10:02:36;98238.13;;;8.16;93.64
36242;BME280;22283;42.748;12.732;2024-03-07T10:07:38;98233.56;;;9.02;91.71
36242;BME280;22283;42.748;12.732;2024-03-07T10:12:38;98234.16;;;9.85;79.24
36242;BME280;22283;42.748;12.732;2024-03-07T10:17:40;98240.06;;;9.89;76.44
36242;BME280;22283;42.748;12.732;2024-03-07T10:22:41;98244.50;;;9.76;77.12
36242;BME280;22283;42.748;12.732;2024-03-07T10:27:42;98235.75;;;9.75;79.92
36242;BME280;22283;42.748;12.732;2024-03-07T10:32:42;98246.97;;;9.92;80.09
36242;BME280;22283;42.748;12.732;2024-03-07T10:37:43;98252.56;;;10.00;78.98
36242;BME280;22283;42.748;12.732;2024-03-07T10:42:48;98253.41;;;9.75;79.70
36242;BME280;22283;42.748;12.732;2024-03-07T10:47:56;98258.03;;;9.71;78.82
36242;BME280;22283;42.748;12.732;2024-03-07T10:58:27;98245.47;;;9.88;78.55
36242;BME280;22283;42.748;12.732;2024-03-07T11:03:31;98237.44;;;9.76;78.68
36242;BME280;22283;42.748;12.732;2024-03-07T11:08:37;98239.16;;;9.38;81.61
36242;BME280;22283;42.748;12.732;2024-03-07T11:13:37;98231.16;;;9.39;84.49
36242;BME280;22283;42.748;12.732;2024-03-07T11:18:38;98221.13;;;9.70;81.56
36242;BME280;22283;42.748;12.732;2024-03-07T11:23:44;98213.44;;;10.18;80.61
36242;BME280;22283;42.748;12.732;2024-03-07T11:28:45;98209.84;;;10.68;77.02
36242;BME280;22283;42.748;12.732;2024-03-07T11:34:16;98210.09;;;11.13;69.23
36242;BME280;22283;42.748;12.732;2024-03-07T11:39:40;98212.34;;;10.82;73.69
36242;BME280;22283;42.748;12.732;2024-03-07T11:44:44;98175.81;;;11.58;69.57
36242;BME280;22283;42.748;12.732;2024-03-07T11:49:46;98183.97;;;11.90;64.93
36242;BME280;22283;42.748;12.732;2024-03-07T11:54:49;98180.50;;;11.54;66.40
36242;BME280;22283;42.748;12.732;2024-03-07T11:59:49;98188.88;;;11.02;68.25
36242;BME280;22283;42.748;12.732;2024-03-07T12:04:52;98187.78;;;11.04;65.17
36242;BME280;22283;42.748;12.732;2024-03-07T12:09:53;98179.03;;;11.15;66.86
36242;BME280;22283;42.748;12.732;2024-03-07T12:14:56;98183.25;;;11.88;64.53
36242;BME280;22283;42.748;12.732;2024-03-07T12:19:57;98166.63;;;11.97;64.24
36242;BME280;22283;42.748;12.732;2024-03-07T12:25:03;98164.94;;;11.96;61.50
36242;BME280;22283;42.748;12.732;2024-03-07T12:30:15;98168.06;;;11.44;62.91
36242;BME280;22283;42.748;12.732;2024-03-07T12:35:16;98173.22;;;11.34;67.37
36242;BME280;22283;42.748;12.732;2024-03-07T12:40:19;98165.00;;;11.26;70.89
36242;BME280;22283;42.748;12.732;2024-03-07T12:45:20;98155.53;;;11.35;68.79
36242;BME280;22283;42.748;12.732;2024-03-07T12:50:21;98153.09;;;11.31;67.80
36242;BME280;22283;42.748;12.732;2024-03-07T12:55:22;98154.38;;;11.15;65.43
36242;BME280;22283;42.748;12.732;2024-03-07T13:00:23;98145.66;;;11.37;67.51
36242;BME280;22283;42.748;12.732;2024-03-07T13:05:24;98143.16;;;11.57;67.87
36242;BME280;22283;42.748;12.732;2024-03-07T13:10:26;98134.00;;;11.50;67.18
36242;BME280;22283;42.748;12.732;2024-03-07T13:15:26;98139.63;;;11.35;66.74
36242;BME280;22283;42.748;12.732;2024-03-07T13:20:27;98132.63;;;11.22;67.35
36242;BME280;22283;42.748;12.732;2024-03-07T13:25:28;98129.00;;;11.23;69.22
36242;BME280;22283;42.748;12.732;2024-03-07T13:30:34;98144.13;;;11.68;71.05
36242;BME280;22283;42.748;12.732;2024-03-07T13:35:38;98129.50;;;11.86;68.70
36242;BME280;22283;42.748;12.732;2024-03-07T13:40:40;98135.25;;;11.91;68.98
36242;BME280;22283;42.748;12.732;2024-03-07T13:45:40;98134.94;;;11.85;65.50
36242;BME280;22283;42.748;12.732;2024-03-07T13:50:43;98129.13;;;12.02;64.48
36242;BME280;22283;42.748;12.732;2024-03-07T14:07:21;98121.75;;;11.61;62.44
36242;BME280;22283;42.748;12.732;2024-03-07T14:18:51;98115.50;;;10.80;73.75
36242;BME280;22283;42.748;12.732;2024-03-07T14:34:57;98095.53;;;10.15;79.93
36242;BME280;22283;42.748;12.732;2024-03-07T14:40:25;98089.78;;;10.21;73.14
36242;BME280;22283;42.748;12.732;2024-03-07T14:45:31;98089.06;;;10.19;69.50
36242;BME280;22283;42.748;12.732;2024-03-07T14:50:34;98100.69;;;10.29;73.01
36242;BME280;22283;42.748;12.732;2024-03-07T14:55:36;98103.09;;;10.32;74.11
36242;BME280;22283;42.748;12.732;2024-03-07T15:00:38;98100.66;;;10.42;73.92
36242;BME280;22283;42.748;12.732;2024-03-07T15:05:43;98094.13;;;10.35;71.69
36242;BME280;22283;42.748;12.732;2024-03-07T15:10:49;98102.34;;;10.43;70.91
36242;BME280;22283;42.748;12.732;2024-03-07T15:15:51;98087.53;;;10.41;70.93
36242;BME280;22283;42.748;12.732;2024-03-07T15:20:52;98091.31;;;10.49;69.66
36242;BME280;22283;42.748;12.732;2024-03-07T15:25:53;98082.97;;;10.43;71.69
36242;BME280;22283;42.748;12.732;2024-03-07T15:30:53;98097.47;;;10.37;68.92
36242;BME280;22283;42.748;12.732;2024-03-07T15:35:54;98087.53;;;10.41;70.96
36242;BME280;22283;42.748;12.732;2024-03-07T15:41:00;98088.25;;;10.43;69.11
36242;BME280;22283;42.748;12.732;2024-03-07T15:46:02;98080.16;;;10.33;69.39
36242;BME280;22283;42.748;12.732;2024-03-07T15:51:04;98080.47;;;10.28;70.89
36242;BME280;22283;42.748;12.732;2024-03-07T15:56:06;98077.53;;;10.20;74.63
36242;BME280;22283;42.748;12.732;2024-03-07T16:01:07;98078.69;;;10.16;76.31
36242;BME280;22283;42.748;12.732;2024-03-07T16:06:08;98078.88;;;10.02;76.51
36242;BME280;22283;42.748;12.732;2024-03-07T16:11:08;98066.28;;;9.93;77.41
36242;BME280;22283;42.748;12.732;2024-03-07T16:16:09;98083.78;;;9.82;79.02
36242;BME280;22283;42.748;12.732;2024-03-07T16:21:09;98080.28;;;9.69;79.16
36242;BME280;22283;42.748;12.732;2024-03-07T16:26:10;98071.09;;;9.62;79.92
36242;BME280;22283;42.748;12.732;2024-03-07T16:31:10;98064.34;;;9.45;81.31
36242;BME280;22283;42.748;12.732;2024-03-07T16:36:11;98065.53;;;9.28;82.24
36242;BME280;22283;42.748;12.732;2024-03-07T16:41:13;98057.19;;;9.09;83.46
36242;BME280;22283;42.748;12.732;2024-03-07T16:46:14;98064.84;;;8.86;85.38
36242;BME280;22283;42.748;12.732;2024-03-07T16:51:14;98068.09;;;8.65;88.38
36242;BME280;22283;42.748;12.732;2024-03-07T16:56:16;98065.75;;;8.33;91.79
36242;BME280;22283;42.748;12.732;2024-03-07T17:01:16;98070.50;;;8.13;95.02
36242;BME280;22283;42.748;12.732;2024-03-07T17:06:16;98082.84;;;7.99;98.72
36242;BME280;22283;42.748;12.732;2024-03-07T17:11:17;98076.69;;;7.71;100.00
36242;BME280;22283;42.748;12.732;2024-03-07T17:16:18;98071.94;;;7.49;100.00
36242;BME280;22283;42.748;12.732;2024-03-07T17:21:19;98071.25;;;7.31;100.00
36242;BME280;22283;42.748;12.732;2024-03-07T17:26:19;98068.88;;;7.12;100.00
36242;BME280;22283;42.748;12.732;2024-03-07T17:31:19;98067.09;;;6.99;100.00
36242;BME280;22283;42.748;12.732;2024-03-07T17:36:20;98070.63;;;6.83;100.00
36242;BME280;22283;42.748;12.732;2024-03-07T17:41:21;98073.53;;;6.79;100.00
36242;BME280;22283;42.748;12.732;2024-03-07T17:46:22;98079.69;;;6.63;100.00
36242;BME280;22283;42.748;12.732;2024-03-07T17:51:26;98076.50;;;6.43;100.00
36242;BME280;22283;42.748;12.732;2024-03-07T17:56:26;98079.19;;;6.41;100.00
36242;BME280;22283;42.748;12.732;2024-03-07T18:01:28;98079.41;;;6.38;100.00
36242;BME280;22283;42.748;12.732;2024-03-07T18:06:29;98084.41;;;6.27;100.00
36242;BME280;22283;42.748;12.732;2024-03-07T18:11:29;98088.56;;;6.15;100.00
36242;BME280;22283;42.748;12.732;2024-03-07T18:16:33;98082.75;;;6.10;100.00
36242;BME280;22283;42.748;12.732;2024-03-07T18:21:34;98088.47;;;6.01;100.00
36242;BME280;22283;42.748;12.732;2024-03-07T18:26:34;98093.28;;;5.77;100.00
36242;BME280;22283;42.748;12.732;2024-03-07T18:31:35;98095.28;;;5.56;100.00
36242;BME280;22283;42.748;12.732;2024-03-07T18:36:36;98086.81;;;5.51;100.00
36242;BME280;22283;42.748;12.732;2024-03-07T18:41:36;98089.00;;;5.42;100.00
36242;BME280;22283;42.748;12.732;2024-03-07T18:46:37;98073.13;;;5.28;100.00
36242;BME280;22283;42.748;12.732;2024-03-07T18:51:37;98077.28;;;5.32;100.00
36242;BME280;22283;42.748;12.732;2024-03-07T18:56:38;98081.19;;;5.41;100.00
36242;BME280;22283;42.748;12.732;2024-03-07T19:01:38;98079.13;;;5.30;100.00
36242;BME280;22283;42.748;12.732;2024-03-07T19:06:39;98081.69;;;5.14;100.00
36242;BME280;22283;42.748;12.732;2024-03-07T19:11:45;98080.03;;;4.96;100.00
36242;BME280;22283;42.748;12.732;2024-03-07T19:16:47;98082.72;;;4.94;100.00
36242;BME280;22283;42.748;12.732;2024-03-07T19:21:47;98071.03;;;4.84;100.00
36242;BME280;22283;42.748;12.732;2024-03-07T19:26:48;98084.00;;;4.87;100.00
36242;BME280;22283;42.748;12.732;2024-03-07T19:31:49;98080.41;;;4.71;100.00
36242;BME280;22283;42.748;12.732;2024-03-07T19:36:50;98072.97;;;4.63;100.00
36242;BME280;22283;42.748;12.732;2024-03-07T19:41:52;98071.25;;;4.62;100.00
36242;BME280;22283;42.748;12.732;2024-03-07T19:46:53;98071.94;;;4.66;100.00
36242;BME280;22283;42.748;12.732;2024-03-07T19:51:53;98064.31;;;4.61;100.00
36242;BME280;22283;42.748;12.732;2024-03-07T19:56:54;98078.19;;;4.46;100.00
36242;BME280;22283;42.748;12.732;2024-03-07T20:02:04;98083.28;;;4.32;100.00
36242;BME280;22283;42.748;12.732;2024-03-07T20:07:07;98080.72;;;4.11;100.00
36242;BME280;22283;42.748;12.732;2024-03-07T20:12:10;98089.97;;;4.01;100.00
36242;BME280;22283;42.748;12.732;2024-03-07T20:17:13;98083.75;;;3.85;100.00
36242;BME280;22283;42.748;12.732;2024-03-07T20:22:13;98094.38;;;3.82;100.00
36242;BME280;22283;42.748;12.732;2024-03-07T20:27:13;98074.00;;;3.88;100.00
36242;BME280;22283;42.748;12.732;2024-03-07T20:32:16;98088.53;;;4.13;100.00
36242;BME280;22283;42.748;12.732;2024-03-07T20:37:16;98073.34;;;4.19;100.00
36242;BME280;22283;42.748;12.732;2024-03-07T20:42:17;98081.59;;;4.12;100.00
36242;BME280;22283;42.748;12.732;2024-03-07T20:47:17;98096.63;;;4.08;100.00
36242;BME280;22283;42.748;12.732;2024-03-07T20:52:19;98096.63;;;3.89;100.00
36242;BME280;22283;42.748;12.732;2024-03-07T20:57:20;98104.91;;;3.80;100.00
36242;BME280;22283;42.748;12.732;2024-03-07T21:02:20;98109.94;;;3.85;100.00
36242;BME280;22283;42.748;12.732;2024-03-07T21:07:21;98105.41;;;3.88;100.00
36242;BME280;22283;42.748;12.732;2024-03-07T21:12:21;98101.06;;;3.87;100.00
36242;BME280;22283;42.748;12.732;2024-03-07T21:17:22;98096.53;;;3.72;100.00
36242;BME280;22283;42.748;12.732;2024-03-07T21:22:23;98097.09;;;3.60;100.00
36242;BME280;22283;42.748;12.732;2024-03-07T21:27:23;98100.94;;;3.53;100.00
36242;BME280;22283;42.748;12.732;2024-03-07T21:32:23;98099.59;;;3.63;100.00
36242;BME280;22283;42.748;12.732;2024-03-07T21:37:24;98105.44;;;3.68;100.00
36242;BME280;22283;42.748;12.732;2024-03-07T21:42:25;98111.75;;;3.45;100.00
36242;BME280;22283;42.748;12.732;2024-03-07T21:47:25;98095.34;;;3.41;100.00
36242;BME280;22283;42.748;12.732;2024-03-07T21:52:26;98092.94;;;3.37;100.00
36242;BME280;22283;42.748;12.732;2024-03-07T21:57:26;98082.31;;;3.40;100.00
36242;BME280;22283;42.748;12.732;2024-03-07T22:02:27;98104.06;;;3.40;100.00
36242;BME280;22283;42.748;12.732;2024-03-07T22:07:27;98102.81;;;3.30;100.00
36242;BME280;22283;42.748;12.732;2024-03-07T22:12:28;98103.91;;;3.25;100.00
36242;BME280;22283;42.748;12.732;2024-03-07T22:17:28;98094.97;;;3.30;100.00
36242;BME280;22283;42.748;12.732;2024-03-07T22:22:29;98105.03;;;3.19;100.00
36242;BME280;22283;42.748;12.732;2024-03-07T22:27:29;98100.94;;;3.13;100.00
36242;BME280;22283;42.748;12.732;2024-03-07T22:32:30;98105.31;;;3.13;100.00
36242;BME280;22283;42.748;12.732;2024-03-07T22:37:31;98109.97;;;3.06;100.00
36242;BME280;22283;42.748;12.732;2024-03-07T22:42:32;98106.81;;;2.98;100.00
36242;BME280;22283;42.748;12.732;2024-03-07T22:47:33;98108.19;;;2.86;100.00
36242;BME280;22283;42.748;12.732;2024-03-07T22:52:34;98104.06;;;2.81;100.00
36242;BME280;22283;42.748;12.732;2024-03-07T22:57:35;98103.50;;;2.74;100.00
36242;BME280;22283;42.748;12.732;2024-03-07T23:02:36;98102.50;;;2.77;100.00
36242;BME280;22283;42.748;12.732;2024-03-07T23:07:36;98100.19;;;2.69;100.00
36242;BME280;22283;42.748;12.732;2024-03-07T23:12:40;98096.22;;;2.81;100.00
36242;BME280;22283;42.748;12.732;2024-03-07T23:17:41;98098.81;;;2.60;100.00
36242;BME280;22283;42.748;12.732;2024-03-07T23:22:44;98113.59;;;2.61;100.00
36242;BME280;22283;42.748;12.732;2024-03-07T23:27:45;98102.03;;;2.46;100.00
36242;BME280;22283;42.748;12.732;2024-03-07T23:32:48;98103.84;;;2.44;100.00
36242;BME280;22283;42.748;12.732;2024-03-07T23:37:50;98113.50;;;2.42;100.00
36242;BME280;22283;42.748;12.732;2024-03-07T23:42:51;98109.84;;;2.46;100.00
36242;BME280;22283;42.748;12.732;2024-03-07T23:47:53;98125.75;;;2.40;100.00
36242;BME280;22283;42.748;12.732;2024-03-07T23:53:00;98127.94;;;2.29;100.00
36242;BME280;22283;42.748;12.732;2024-03-07T23:58:02;98129.78;;;2.27;100.00
